sensor_id;sensor_type;location;lat;lon;timestamp;P1;durP1;ratioP1;P2;durP2;ratioP2
9720;SDS011;4899;42.644;23.366;2023-08-20T00:00:17;7.20;;;6.17;;
9720;SDS011;4899;42.644;23.366;2023-08-20T00:02:43;7.40;;;6.63;;
9720;SDS011;4899;42.644;23.366;2023-08-20T00:05:12;7.43;;;5.80;;
9720;SDS011;4899;42.644;23.366;2023-08-20T00:07:38;7.13;;;6.13;;
9720;SDS011;4899;42.644;23.366;2023-08-20T00:10:22;6.57;;;6.07;;
9720;SDS011;4899;42.644;23.366;2023-08-20T00:12:47;6.60;;;6.00;;
9720;SDS011;4899;42.644;23.366;2023-08-20T00:15:12;6.57;;;5.97;;
9720;SDS011;4899;42.644;23.366;2023-08-20T00:17:38;6.80;;;6.20;;
9720;SDS011;4899;42.644;23.366;2023-08-20T00:20:05;7.23;;;6.53;;
9720;SDS011;4899;42.644;23.366;2023-08-20T00:22:40;6.30;;;5.80;;
9720;SDS011;4899;42.644;23.366;2023-08-20T00:25:10;7.43;;;6.83;;
9720;SDS011;4899;42.644;23.366;2023-08-20T00:27:38;7.40;;;6.53;;
9720;SDS011;4899;42.644;23.366;2023-08-20T00:30:04;7.53;;;6.77;;
9720;SDS011;4899;42.644;23.366;2023-08-20T00:32:30;7.43;;;6.83;;
9720;SDS011;4899;42.644;23.366;2023-08-20T00:34:56;7.20;;;6.50;;
9720;SDS011;4899;42.644;23.366;2023-08-20T00:37:21;6.90;;;6.27;;
9720;SDS011;4899;42.644;23.366;2023-08-20T00:39:47;7.50;;;6.90;;
9720;SDS011;4899;42.644;23.366;2023-08-20T00:42:12;7.33;;;6.63;;
9720;SDS011;4899;42.644;23.366;2023-08-20T00:44:41;7.30;;;6.63;;
9720;SDS011;4899;42.644;23.366;2023-08-20T00:47:09;7.27;;;6.57;;
9720;SDS011;4899;42.644;23.366;2023-08-20T00:49:38;6.93;;;6.23;;
9720;SDS011;4899;42.644;23.366;2023-08-20T00:52:10;7.43;;;6.73;;
9720;SDS011;4899;42.644;23.366;2023-08-20T00:54:39;7.97;;;7.27;;
9720;SDS011;4899;42.644;23.366;2023-08-20T00:57:05;7.67;;;6.93;;
9720;SDS011;4899;42.644;23.366;2023-08-20T00:59:32;7.67;;;6.93;;
9720;SDS011;4899;42.644;23.366;2023-08-20T01:01:58;8.97;;;6.77;;
9720;SDS011;4899;42.644;23.366;2023-08-20T01:04:28;7.87;;;7.17;;
9720;SDS011;4899;42.644;23.366;2023-08-20T01:12:16;8.23;;;7.47;;
9720;SDS011;4899;42.644;23.366;2023-08-20T01:14:42;7.63;;;6.90;;
9720;SDS011;4899;42.644;23.366;2023-08-20T01:17:07;7.10;;;6.47;;
9720;SDS011;4899;42.644;23.366;2023-08-20T01:19:35;7.50;;;6.80;;
9720;SDS011;4899;42.644;23.366;2023-08-20T01:30:28;7.80;;;7.10;;
9720;SDS011;4899;42.644;23.366;2023-08-20T01:32:55;7.70;;;6.90;;
9720;SDS011;4899;42.644;23.366;2023-08-20T01:35:23;7.67;;;6.87;;
9720;SDS011;4899;42.644;23.366;2023-08-20T01:37:51;7.73;;;6.87;;
9720;SDS011;4899;42.644;23.366;2023-08-20T01:40:17;7.60;;;7.00;;
9720;SDS011;4899;42.644;23.366;2023-08-20T01:42:43;8.63;;;7.87;;
9720;SDS011;4899;42.644;23.366;2023-08-20T01:45:08;8.13;;;7.37;;
9720;SDS011;4899;42.644;23.366;2023-08-20T01:47:34;7.97;;;7.27;;
9720;SDS011;4899;42.644;23.366;2023-08-20T01:50:00;8.00;;;7.20;;
9720;SDS011;4899;42.644;23.366;2023-08-20T01:52:28;8.07;;;7.30;;
9720;SDS011;4899;42.644;23.366;2023-08-20T01:54:57;8.00;;;7.30;;
9720;SDS011;4899;42.644;23.366;2023-08-20T01:57:23;7.70;;;7.03;;
9720;SDS011;4899;42.644;23.366;2023-08-20T01:59:48;8.90;;;6.90;;
9720;SDS011;4899;42.644;23.366;2023-08-20T02:02:13;8.27;;;7.47;;
9720;SDS011;4899;42.644;23.366;2023-08-20T02:04:39;9.00;;;6.90;;
9720;SDS011;4899;42.644;23.366;2023-08-20T02:07:10;7.80;;;7.10;;
9720;SDS011;4899;42.644;23.366;2023-08-20T02:09:35;8.40;;;7.50;;
9720;SDS011;4899;42.644;23.366;2023-08-20T02:12:01;9.50;;;8.00;;
9720;SDS011;4899;42.644;23.366;2023-08-20T02:14:26;9.03;;;8.30;;
9720;SDS011;4899;42.644;23.366;2023-08-20T02:16:53;8.30;;;7.60;;
9720;SDS011;4899;42.644;23.366;2023-08-20T02:19:19;8.50;;;7.80;;
9720;SDS011;4899;42.644;23.366;2023-08-20T02:21:44;8.13;;;7.40;;
9720;SDS011;4899;42.644;23.366;2023-08-20T02:24:09;9.67;;;8.07;;
9720;SDS011;4899;42.644;23.366;2023-08-20T02:26:35;8.77;;;8.00;;
9720;SDS011;4899;42.644;23.366;2023-08-20T02:29:00;9.00;;;8.30;;
9720;SDS011;4899;42.644;23.366;2023-08-20T02:31:32;8.80;;;7.90;;
9720;SDS011;4899;42.644;23.366;2023-08-20T02:33:57;8.87;;;8.17;;
9720;SDS011;4899;42.644;23.366;2023-08-20T02:36:22;9.33;;;8.63;;
9720;SDS011;4899;42.644;23.366;2023-08-20T02:38:48;9.30;;;8.33;;
9720;SDS011;4899;42.644;23.366;2023-08-20T02:41:13;8.47;;;7.67;;
9720;SDS011;4899;42.644;23.366;2023-08-20T02:43:39;9.03;;;8.10;;
9720;SDS011;4899;42.644;23.366;2023-08-20T02:46:07;8.93;;;8.23;;
9720;SDS011;4899;42.644;23.366;2023-08-20T02:48:33;9.50;;;8.63;;
9720;SDS011;4899;42.644;23.366;2023-08-20T02:50:58;9.93;;;8.00;;
9720;SDS011;4899;42.644;23.366;2023-08-20T02:53:24;8.53;;;7.83;;
9720;SDS011;4899;42.644;23.366;2023-08-20T02:55:52;8.87;;;8.10;;
9720;SDS011;4899;42.644;23.366;2023-08-20T02:58:17;8.37;;;7.70;;
9720;SDS011;4899;42.644;23.366;2023-08-20T03:00:43;8.73;;;8.03;;
9720;SDS011;4899;42.644;23.366;2023-08-20T03:03:10;9.67;;;8.83;;
9720;SDS011;4899;42.644;23.366;2023-08-20T03:05:37;12.13;;;8.10;;
9720;SDS011;4899;42.644;23.366;2023-08-20T03:08:05;8.80;;;8.10;;
9720;SDS011;4899;42.644;23.366;2023-08-20T03:10:31;8.60;;;7.93;;
9720;SDS011;4899;42.644;23.366;2023-08-20T03:12:58;8.90;;;8.10;;
9720;SDS011;4899;42.644;23.366;2023-08-20T03:15:24;9.47;;;8.30;;
9720;SDS011;4899;42.644;23.366;2023-08-20T03:17:49;8.70;;;8.00;;
9720;SDS011;4899;42.644;23.366;2023-08-20T03:20:17;8.73;;;7.93;;
9720;SDS011;4899;42.644;23.366;2023-08-20T03:22:43;9.37;;;8.10;;
9720;SDS011;4899;42.644;23.366;2023-08-20T03:25:08;7.80;;;7.20;;
9720;SDS011;4899;42.644;23.366;2023-08-20T03:27:36;7.93;;;7.23;;
9720;SDS011;4899;42.644;23.366;2023-08-20T03:30:03;8.87;;;8.00;;
9720;SDS011;4899;42.644;23.366;2023-08-20T03:32:29;8.90;;;8.10;;
9720;SDS011;4899;42.644;23.366;2023-08-20T03:34:56;8.30;;;7.67;;
9720;SDS011;4899;42.644;23.366;2023-08-20T03:37:26;8.10;;;7.40;;
9720;SDS011;4899;42.644;23.366;2023-08-20T03:39:52;8.30;;;7.60;;
9720;SDS011;4899;42.644;23.366;2023-08-20T03:42:17;8.87;;;8.03;;
9720;SDS011;4899;42.644;23.366;2023-08-20T03:44:43;7.90;;;7.30;;
9720;SDS011;4899;42.644;23.366;2023-08-20T03:47:08;7.97;;;7.27;;
9720;SDS011;4899;42.644;23.366;2023-08-20T03:49:34;8.33;;;7.53;;
9720;SDS011;4899;42.644;23.366;2023-08-20T03:51:59;8.77;;;7.90;;
9720;SDS011;4899;42.644;23.366;2023-08-20T03:54:27;8.37;;;7.63;;
9720;SDS011;4899;42.644;23.366;2023-08-20T03:56:53;7.90;;;7.20;;
9720;SDS011;4899;42.644;23.366;2023-08-20T03:59:19;8.57;;;7.77;;
9720;SDS011;4899;42.644;23.366;2023-08-20T04:01:44;8.67;;;7.83;;
9720;SDS011;4899;42.644;23.366;2023-08-20T04:04:10;8.27;;;7.47;;
9720;SDS011;4899;42.644;23.366;2023-08-20T04:06:35;8.73;;;8.03;;
9720;SDS011;4899;42.644;23.366;2023-08-20T04:09:00;8.93;;;8.13;;
9720;SDS011;4899;42.644;23.366;2023-08-20T04:11:26;9.20;;;8.30;;
9720;SDS011;4899;42.644;23.366;2023-08-20T04:13:51;8.23;;;7.50;;
9720;SDS011;4899;42.644;23.366;2023-08-20T04:16:16;8.97;;;8.07;;
9720;SDS011;4899;42.644;23.366;2023-08-20T04:18:42;8.80;;;7.90;;
9720;SDS011;4899;42.644;23.366;2023-08-20T04:21:10;9.27;;;8.37;;
9720;SDS011;4899;42.644;23.366;2023-08-20T04:23:36;8.77;;;7.83;;
9720;SDS011;4899;42.644;23.366;2023-08-20T04:26:01;9.17;;;8.07;;
9720;SDS011;4899;42.644;23.366;2023-08-20T04:28:27;11.90;;;8.83;;
9720;SDS011;4899;42.644;23.366;2023-08-20T04:30:53;8.17;;;7.37;;
9720;SDS011;4899;42.644;23.366;2023-08-20T04:33:24;8.70;;;7.80;;
9720;SDS011;4899;42.644;23.366;2023-08-20T04:35:50;8.33;;;7.63;;
9720;SDS011;4899;42.644;23.366;2023-08-20T04:38:15;8.83;;;8.03;;
9720;SDS011;4899;42.644;23.366;2023-08-20T04:40:41;8.37;;;7.50;;
9720;SDS011;4899;42.644;23.366;2023-08-20T04:43:06;8.10;;;7.40;;
9720;SDS011;4899;42.644;23.366;2023-08-20T04:45:34;11.27;;;7.40;;
9720;SDS011;4899;42.644;23.366;2023-08-20T04:48:00;8.70;;;7.43;;
9720;SDS011;4899;42.644;23.366;2023-08-20T04:50:25;8.03;;;7.30;;
9720;SDS011;4899;42.644;23.366;2023-08-20T04:52:50;8.63;;;7.30;;
9720;SDS011;4899;42.644;23.366;2023-08-20T04:55:17;7.40;;;6.70;;
9720;SDS011;4899;42.644;23.366;2023-08-20T04:57:42;7.60;;;6.90;;
9720;SDS011;4899;42.644;23.366;2023-08-20T05:00:08;8.20;;;7.47;;
9720;SDS011;4899;42.644;23.366;2023-08-20T05:02:34;8.20;;;7.50;;
9720;SDS011;4899;42.644;23.366;2023-08-20T05:05:00;7.83;;;7.23;;
9720;SDS011;4899;42.644;23.366;2023-08-20T05:07:27;8.37;;;7.67;;
9720;SDS011;4899;42.644;23.366;2023-08-20T05:09:52;8.87;;;7.17;;
9720;SDS011;4899;42.644;23.366;2023-08-20T05:12:18;8.10;;;7.50;;
9720;SDS011;4899;42.644;23.366;2023-08-20T05:14:45;8.30;;;7.60;;
9720;SDS011;4899;42.644;23.366;2023-08-20T05:17:11;8.43;;;7.40;;
9720;SDS011;4899;42.644;23.366;2023-08-20T05:19:36;7.40;;;6.80;;
9720;SDS011;4899;42.644;23.366;2023-08-20T05:22:01;8.07;;;7.37;;
9720;SDS011;4899;42.644;23.366;2023-08-20T05:24:27;8.10;;;7.43;;
9720;SDS011;4899;42.644;23.366;2023-08-20T05:27:05;11.43;;;8.20;;
9720;SDS011;4899;42.644;23.366;2023-08-20T05:29:35;10.50;;;8.03;;
9720;SDS011;4899;42.644;23.366;2023-08-20T05:32:02;8.33;;;7.63;;
9720;SDS011;4899;42.644;23.366;2023-08-20T05:34:27;8.47;;;7.53;;
9720;SDS011;4899;42.644;23.366;2023-08-20T05:36:53;13.13;;;8.30;;
9720;SDS011;4899;42.644;23.366;2023-08-20T05:39:18;9.07;;;8.17;;
9720;SDS011;4899;42.644;23.366;2023-08-20T05:41:43;9.80;;;8.90;;
9720;SDS011;4899;42.644;23.366;2023-08-20T05:44:09;9.07;;;8.27;;
9720;SDS011;4899;42.644;23.366;2023-08-20T05:46:35;10.80;;;8.17;;
9720;SDS011;4899;42.644;23.366;2023-08-20T05:49:00;9.27;;;8.37;;
9720;SDS011;4899;42.644;23.366;2023-08-20T05:51:26;8.80;;;8.03;;
9720;SDS011;4899;42.644;23.366;2023-08-20T05:53:51;10.07;;;8.57;;
9720;SDS011;4899;42.644;23.366;2023-08-20T05:56:20;9.80;;;8.07;;
9720;SDS011;4899;42.644;23.366;2023-08-20T05:58:45;9.20;;;8.40;;
9720;SDS011;4899;42.644;23.366;2023-08-20T06:01:11;8.87;;;7.97;;
9720;SDS011;4899;42.644;23.366;2023-08-20T06:03:36;8.90;;;8.00;;
9720;SDS011;4899;42.644;23.366;2023-08-20T06:06:01;8.70;;;7.47;;
9720;SDS011;4899;42.644;23.366;2023-08-20T06:08:27;8.07;;;7.47;;
9720;SDS011;4899;42.644;23.366;2023-08-20T06:10:52;10.60;;;8.57;;
9720;SDS011;4899;42.644;23.366;2023-08-20T06:13:18;8.73;;;7.70;;
9720;SDS011;4899;42.644;23.366;2023-08-20T06:15:43;8.47;;;7.77;;
9720;SDS011;4899;42.644;23.366;2023-08-20T06:18:09;8.93;;;8.23;;
9720;SDS011;4899;42.644;23.366;2023-08-20T06:20:34;8.23;;;7.50;;
9720;SDS011;4899;42.644;23.366;2023-08-20T06:22:59;10.43;;;7.90;;
9720;SDS011;4899;42.644;23.366;2023-08-20T06:25:25;8.13;;;7.43;;
9720;SDS011;4899;42.644;23.366;2023-08-20T06:27:53;7.80;;;7.10;;
9720;SDS011;4899;42.644;23.366;2023-08-20T06:30:19;12.13;;;7.70;;
9720;SDS011;4899;42.644;23.366;2023-08-20T06:32:44;8.57;;;7.43;;
9720;SDS011;4899;42.644;23.366;2023-08-20T06:35:10;8.67;;;7.77;;
9720;SDS011;4899;42.644;23.366;2023-08-20T06:37:36;7.70;;;6.97;;
9720;SDS011;4899;42.644;23.366;2023-08-20T06:40:04;7.33;;;6.60;;
9720;SDS011;4899;42.644;23.366;2023-08-20T06:42:30;7.77;;;7.10;;
9720;SDS011;4899;42.644;23.366;2023-08-20T06:44:56;9.03;;;6.87;;
9720;SDS011;4899;42.644;23.366;2023-08-20T06:47:21;8.43;;;6.90;;
9720;SDS011;4899;42.644;23.366;2023-08-20T06:49:47;7.90;;;7.20;;
9720;SDS011;4899;42.644;23.366;2023-08-20T06:52:12;7.63;;;7.03;;
9720;SDS011;4899;42.644;23.366;2023-08-20T06:54:40;7.70;;;6.70;;
9720;SDS011;4899;42.644;23.366;2023-08-20T06:57:05;7.67;;;6.37;;
9720;SDS011;4899;42.644;23.366;2023-08-20T06:59:31;7.17;;;6.47;;
9720;SDS011;4899;42.644;23.366;2023-08-20T07:01:56;8.07;;;6.90;;
9720;SDS011;4899;42.644;23.366;2023-08-20T07:04:22;6.87;;;6.20;;
9720;SDS011;4899;42.644;23.366;2023-08-20T07:06:47;7.30;;;6.60;;
9720;SDS011;4899;42.644;23.366;2023-08-20T07:09:12;10.90;;;7.77;;
9720;SDS011;4899;42.644;23.366;2023-08-20T07:11:38;8.67;;;7.97;;
9720;SDS011;4899;42.644;23.366;2023-08-20T07:14:03;9.13;;;6.40;;
9720;SDS011;4899;42.644;23.366;2023-08-20T07:16:29;8.23;;;6.20;;
9720;SDS011;4899;42.644;23.366;2023-08-20T07:18:54;7.57;;;6.50;;
9720;SDS011;4899;42.644;23.366;2023-08-20T07:21:19;6.67;;;6.07;;
9720;SDS011;4899;42.644;23.366;2023-08-20T07:23:45;6.43;;;5.77;;
9720;SDS011;4899;42.644;23.366;2023-08-20T07:26:10;7.43;;;5.93;;
9720;SDS011;4899;42.644;23.366;2023-08-20T07:28:40;6.40;;;5.90;;
9720;SDS011;4899;42.644;23.366;2023-08-20T07:33:57;6.90;;;6.20;;
9720;SDS011;4899;42.644;23.366;2023-08-20T07:36:24;6.73;;;6.10;;
9720;SDS011;4899;42.644;23.366;2023-08-20T07:38:50;8.37;;;6.43;;
9720;SDS011;4899;42.644;23.366;2023-08-20T07:41:16;8.53;;;6.63;;
9720;SDS011;4899;42.644;23.366;2023-08-20T07:43:42;7.03;;;6.37;;
9720;SDS011;4899;42.644;23.366;2023-08-20T07:46:08;6.67;;;6.03;;
9720;SDS011;4899;42.644;23.366;2023-08-20T07:48:34;6.77;;;5.80;;
9720;SDS011;4899;42.644;23.366;2023-08-20T07:51:00;6.30;;;5.80;;
9720;SDS011;4899;42.644;23.366;2023-08-20T07:53:26;6.70;;;6.03;;
9720;SDS011;4899;42.644;23.366;2023-08-20T07:55:51;6.13;;;5.63;;
9720;SDS011;4899;42.644;23.366;2023-08-20T07:58:17;6.00;;;5.45;;
9720;SDS011;4899;42.644;23.366;2023-08-20T08:00:42;7.90;;;6.40;;
9720;SDS011;4899;42.644;23.366;2023-08-20T08:03:08;5.90;;;5.20;;
9720;SDS011;4899;42.644;23.366;2023-08-20T08:05:34;5.72;;;5.32;;
9720;SDS011;4899;42.644;23.366;2023-08-20T08:08:00;6.43;;;5.30;;
9720;SDS011;4899;42.644;23.366;2023-08-20T08:10:26;5.63;;;5.13;;
9720;SDS011;4899;42.644;23.366;2023-08-20T08:12:51;5.13;;;3.95;;
9720;SDS011;4899;42.644;23.366;2023-08-20T08:15:16;5.15;;;4.72;;
9720;SDS011;4899;42.644;23.366;2023-08-20T08:17:43;4.70;;;4.40;;
9720;SDS011;4899;42.644;23.366;2023-08-20T08:20:09;5.47;;;5.07;;
9720;SDS011;4899;42.644;23.366;2023-08-20T08:22:35;5.80;;;5.13;;
9720;SDS011;4899;42.644;23.366;2023-08-20T08:25:00;5.05;;;4.60;;
9720;SDS011;4899;42.644;23.366;2023-08-20T08:27:25;4.65;;;4.35;;
9720;SDS011;4899;42.644;23.366;2023-08-20T08:29:51;4.38;;;3.97;;
9720;SDS011;4899;42.644;23.366;2023-08-20T08:32:16;4.90;;;4.43;;
9720;SDS011;4899;42.644;23.366;2023-08-20T08:34:42;9.60;;;4.80;;
9720;SDS011;4899;42.644;23.366;2023-08-20T08:37:07;4.63;;;4.22;;
9720;SDS011;4899;42.644;23.366;2023-08-20T08:39:33;4.40;;;4.00;;
9720;SDS011;4899;42.644;23.366;2023-08-20T08:42:00;4.95;;;3.67;;
9720;SDS011;4899;42.644;23.366;2023-08-20T08:44:33;5.32;;;4.60;;
9720;SDS011;4899;42.644;23.366;2023-08-20T08:46:59;4.13;;;3.75;;
9720;SDS011;4899;42.644;23.366;2023-08-20T08:49:26;5.50;;;4.57;;
9720;SDS011;4899;42.644;23.366;2023-08-20T08:51:53;4.93;;;4.45;;
9720;SDS011;4899;42.644;23.366;2023-08-20T08:54:19;3.90;;;3.60;;
9720;SDS011;4899;42.644;23.366;2023-08-20T08:56:45;4.47;;;4.00;;
9720;SDS011;4899;42.644;23.366;2023-08-20T08:59:10;5.05;;;4.00;;
9720;SDS011;4899;42.644;23.366;2023-08-20T09:01:39;3.90;;;3.60;;
9720;SDS011;4899;42.644;23.366;2023-08-20T09:04:05;4.45;;;3.95;;
9720;SDS011;4899;42.644;23.366;2023-08-20T09:06:44;4.35;;;4.05;;
9720;SDS011;4899;42.644;23.366;2023-08-20T09:09:20;4.95;;;4.65;;
9720;SDS011;4899;42.644;23.366;2023-08-20T09:11:47;4.93;;;4.32;;
9720;SDS011;4899;42.644;23.366;2023-08-20T09:16:58;4.00;;;3.78;;
9720;SDS011;4899;42.644;23.366;2023-08-20T09:19:28;3.38;;;3.10;;
9720;SDS011;4899;42.644;23.366;2023-08-20T09:21:55;3.63;;;3.25;;
9720;SDS011;4899;42.644;23.366;2023-08-20T09:24:32;3.83;;;3.53;;
9720;SDS011;4899;42.644;23.366;2023-08-20T09:27:00;3.90;;;3.60;;
9720;SDS011;4899;42.644;23.366;2023-08-20T09:29:28;3.78;;;3.50;;
9720;SDS011;4899;42.644;23.366;2023-08-20T09:32:00;3.95;;;3.58;;
9720;SDS011;4899;42.644;23.366;2023-08-20T09:34:36;5.18;;;3.47;;
9720;SDS011;4899;42.644;23.366;2023-08-20T09:37:03;4.90;;;3.00;;
9720;SDS011;4899;42.644;23.366;2023-08-20T09:39:28;3.45;;;3.20;;
9720;SDS011;4899;42.644;23.366;2023-08-20T09:41:54;3.22;;;3.03;;
9720;SDS011;4899;42.644;23.366;2023-08-20T09:44:21;4.00;;;3.70;;
9720;SDS011;4899;42.644;23.366;2023-08-20T09:46:47;4.93;;;3.50;;
9720;SDS011;4899;42.644;23.366;2023-08-20T09:49:14;4.30;;;3.90;;
9720;SDS011;4899;42.644;23.366;2023-08-20T09:51:43;3.72;;;3.08;;
9720;SDS011;4899;42.644;23.366;2023-08-20T09:54:15;5.05;;;3.38;;
9720;SDS011;4899;42.644;23.366;2023-08-20T09:56:51;4.15;;;3.45;;
9720;SDS011;4899;42.644;23.366;2023-08-20T09:59:23;3.28;;;3.00;;
9720;SDS011;4899;42.644;23.366;2023-08-20T10:01:49;4.20;;;3.15;;
9720;SDS011;4899;42.644;23.366;2023-08-20T10:04:15;3.42;;;3.13;;
9720;SDS011;4899;42.644;23.366;2023-08-20T10:06:43;3.95;;;3.05;;
9720;SDS011;4899;42.644;23.366;2023-08-20T10:09:09;3.03;;;2.83;;
9720;SDS011;4899;42.644;23.366;2023-08-20T10:11:34;3.15;;;2.95;;
9720;SDS011;4899;42.644;23.366;2023-08-20T10:14:02;3.60;;;3.20;;
9720;SDS011;4899;42.644;23.366;2023-08-20T10:16:28;3.40;;;3.10;;
9720;SDS011;4899;42.644;23.366;2023-08-20T10:18:53;3.50;;;3.30;;
9720;SDS011;4899;42.644;23.366;2023-08-20T10:21:23;3.30;;;3.10;;
9720;SDS011;4899;42.644;23.366;2023-08-20T10:23:50;4.15;;;3.75;;
9720;SDS011;4899;42.644;23.366;2023-08-20T10:26:15;4.50;;;3.30;;
9720;SDS011;4899;42.644;23.366;2023-08-20T10:28:41;3.85;;;3.30;;
9720;SDS011;4899;42.644;23.366;2023-08-20T10:31:10;3.78;;;3.47;;
9720;SDS011;4899;42.644;23.366;2023-08-20T10:36:21;4.28;;;3.30;;
9720;SDS011;4899;42.644;23.366;2023-08-20T10:38:49;3.72;;;3.42;;
9720;SDS011;4899;42.644;23.366;2023-08-20T10:41:15;3.63;;;3.35;;
9720;SDS011;4899;42.644;23.366;2023-08-20T10:43:47;3.30;;;3.00;;
9720;SDS011;4899;42.644;23.366;2023-08-20T10:46:17;3.78;;;3.17;;
9720;SDS011;4899;42.644;23.366;2023-08-20T10:59:13;4.13;;;3.30;;
9720;SDS011;4899;42.644;23.366;2023-08-20T11:01:46;4.30;;;3.90;;
9720;SDS011;4899;42.644;23.366;2023-08-20T11:04:15;3.47;;;3.17;;
9720;SDS011;4899;42.644;23.366;2023-08-20T11:06:41;4.00;;;3.25;;
9720;SDS011;4899;42.644;23.366;2023-08-20T11:09:07;3.65;;;3.33;;
9720;SDS011;4899;42.644;23.366;2023-08-20T11:11:32;4.43;;;3.30;;
9720;SDS011;4899;42.644;23.366;2023-08-20T11:14:04;4.03;;;3.50;;
9720;SDS011;4899;42.644;23.366;2023-08-20T11:16:32;3.85;;;3.60;;
9720;SDS011;4899;42.644;23.366;2023-08-20T11:18:58;3.72;;;2.95;;
9720;SDS011;4899;42.644;23.366;2023-08-20T11:21:23;3.65;;;3.35;;
9720;SDS011;4899;42.644;23.366;2023-08-20T11:24:01;4.75;;;3.50;;
9720;SDS011;4899;42.644;23.366;2023-08-20T11:26:27;3.40;;;3.10;;
9720;SDS011;4899;42.644;23.366;2023-08-20T11:28:55;3.53;;;3.30;;
9720;SDS011;4899;42.644;23.366;2023-08-20T11:31:21;3.08;;;2.78;;
9720;SDS011;4899;42.644;23.366;2023-08-20T11:33:52;3.35;;;3.05;;
9720;SDS011;4899;42.644;23.366;2023-08-20T11:36:19;5.25;;;3.53;;
9720;SDS011;4899;42.644;23.366;2023-08-20T11:38:51;4.47;;;3.15;;
9720;SDS011;4899;42.644;23.366;2023-08-20T11:41:28;5.20;;;3.50;;
9720;SDS011;4899;42.644;23.366;2023-08-20T11:43:54;4.78;;;3.20;;
9720;SDS011;4899;42.644;23.366;2023-08-20T11:46:20;3.33;;;3.13;;
9720;SDS011;4899;42.644;23.366;2023-08-20T11:49:00;5.25;;;3.28;;
9720;SDS011;4899;42.644;23.366;2023-08-20T11:51:28;3.05;;;2.85;;
9720;SDS011;4899;42.644;23.366;2023-08-20T11:53:54;3.60;;;3.30;;
9720;SDS011;4899;42.644;23.366;2023-08-20T11:56:21;4.82;;;3.60;;
9720;SDS011;4899;42.644;23.366;2023-08-20T11:58:49;3.67;;;2.97;;
9720;SDS011;4899;42.644;23.366;2023-08-20T12:01:17;3.63;;;3.22;;
9720;SDS011;4899;42.644;23.366;2023-08-20T12:03:45;6.10;;;3.70;;
9720;SDS011;4899;42.644;23.366;2023-08-20T12:06:20;3.33;;;3.13;;
9720;SDS011;4899;42.644;23.366;2023-08-20T12:08:49;3.50;;;3.30;;
9720;SDS011;4899;42.644;23.366;2023-08-20T12:11:14;3.03;;;2.90;;
9720;SDS011;4899;42.644;23.366;2023-08-20T12:13:40;3.65;;;3.35;;
9720;SDS011;4899;42.644;23.366;2023-08-20T12:16:12;6.22;;;2.92;;
9720;SDS011;4899;42.644;23.366;2023-08-20T12:18:38;3.95;;;3.65;;
9720;SDS011;4899;42.644;23.366;2023-08-20T12:21:04;3.35;;;3.10;;
9720;SDS011;4899;42.644;23.366;2023-08-20T12:23:29;3.80;;;3.17;;
9720;SDS011;4899;42.644;23.366;2023-08-20T12:25:55;3.30;;;3.00;;
9720;SDS011;4899;42.644;23.366;2023-08-20T12:28:20;3.85;;;3.30;;
9720;SDS011;4899;42.644;23.366;2023-08-20T12:30:45;3.00;;;2.80;;
9720;SDS011;4899;42.644;23.366;2023-08-20T12:33:11;4.63;;;3.30;;
9720;SDS011;4899;42.644;23.366;2023-08-20T12:35:39;4.30;;;3.08;;
9720;SDS011;4899;42.644;23.366;2023-08-20T12:38:04;4.15;;;3.28;;
9720;SDS011;4899;42.644;23.366;2023-08-20T12:40:30;2.95;;;2.75;;
9720;SDS011;4899;42.644;23.366;2023-08-20T12:42:56;4.03;;;3.05;;
9720;SDS011;4899;42.644;23.366;2023-08-20T12:45:21;4.93;;;3.22;;
9720;SDS011;4899;42.644;23.366;2023-08-20T12:47:47;3.67;;;3.42;;
9720;SDS011;4899;42.644;23.366;2023-08-20T12:50:12;3.38;;;3.10;;
9720;SDS011;4899;42.644;23.366;2023-08-20T12:52:39;3.30;;;3.00;;
9720;SDS011;4899;42.644;23.366;2023-08-20T12:55:07;3.10;;;3.00;;
9720;SDS011;4899;42.644;23.366;2023-08-20T12:57:34;3.42;;;3.00;;
9720;SDS011;4899;42.644;23.366;2023-08-20T13:00:01;3.30;;;3.00;;
9720;SDS011;4899;42.644;23.366;2023-08-20T13:02:32;4.78;;;3.13;;
9720;SDS011;4899;42.644;23.366;2023-08-20T13:04:58;3.08;;;2.88;;
9720;SDS011;4899;42.644;23.366;2023-08-20T13:07:23;4.15;;;2.90;;
9720;SDS011;4899;42.644;23.366;2023-08-20T13:09:49;3.63;;;3.20;;
9720;SDS011;4899;42.644;23.366;2023-08-20T13:12:15;4.60;;;3.10;;
9720;SDS011;4899;42.644;23.366;2023-08-20T13:14:43;4.15;;;3.42;;
9720;SDS011;4899;42.644;23.366;2023-08-20T13:17:09;3.50;;;3.30;;
9720;SDS011;4899;42.644;23.366;2023-08-20T13:19:35;3.20;;;2.90;;
9720;SDS011;4899;42.644;23.366;2023-08-20T13:22:00;3.28;;;2.95;;
9720;SDS011;4899;42.644;23.366;2023-08-20T13:24:26;3.53;;;3.33;;
9720;SDS011;4899;42.644;23.366;2023-08-20T13:26:51;3.28;;;2.83;;
9720;SDS011;4899;42.644;23.366;2023-08-20T13:29:17;3.08;;;2.80;;
9720;SDS011;4899;42.644;23.366;2023-08-20T13:31:43;3.22;;;2.92;;
9720;SDS011;4899;42.644;23.366;2023-08-20T13:34:09;4.80;;;3.00;;
9720;SDS011;4899;42.644;23.366;2023-08-20T13:36:34;3.35;;;3.10;;
9720;SDS011;4899;42.644;23.366;2023-08-20T13:39:02;3.15;;;2.95;;
9720;SDS011;4899;42.644;23.366;2023-08-20T13:41:28;3.38;;;3.13;;
9720;SDS011;4899;42.644;23.366;2023-08-20T13:43:56;3.20;;;2.97;;
9720;SDS011;4899;42.644;23.366;2023-08-20T13:46:22;3.35;;;2.55;;
9720;SDS011;4899;42.644;23.366;2023-08-20T13:48:47;4.68;;;3.10;;
9720;SDS011;4899;42.644;23.366;2023-08-20T13:51:15;3.30;;;3.00;;
9720;SDS011;4899;42.644;23.366;2023-08-20T13:53:41;4.43;;;2.83;;
9720;SDS011;4899;42.644;23.366;2023-08-20T13:56:07;5.15;;;3.03;;
9720;SDS011;4899;42.644;23.366;2023-08-20T13:58:32;3.25;;;2.95;;
9720;SDS011;4899;42.644;23.366;2023-08-20T14:00:57;3.95;;;2.92;;
9720;SDS011;4899;42.644;23.366;2023-08-20T14:03:23;4.20;;;3.22;;
9720;SDS011;4899;42.644;23.366;2023-08-20T14:05:48;4.75;;;2.78;;
9720;SDS011;4899;42.644;23.366;2023-08-20T14:08:16;4.78;;;3.10;;
9720;SDS011;4899;42.644;23.366;2023-08-20T14:10:44;4.47;;;2.90;;
9720;SDS011;4899;42.644;23.366;2023-08-20T14:13:10;3.70;;;2.63;;
9720;SDS011;4899;42.644;23.366;2023-08-20T14:15:35;3.40;;;3.10;;
9720;SDS011;4899;42.644;23.366;2023-08-20T14:18:02;2.75;;;2.60;;
9720;SDS011;4899;42.644;23.366;2023-08-20T14:20:28;3.08;;;2.88;;
9720;SDS011;4899;42.644;23.366;2023-08-20T14:22:53;2.85;;;2.63;;
9720;SDS011;4899;42.644;23.366;2023-08-20T14:25:19;2.65;;;2.53;;
9720;SDS011;4899;42.644;23.366;2023-08-20T14:27:47;3.30;;;3.10;;
9720;SDS011;4899;42.644;23.366;2023-08-20T14:30:12;5.63;;;2.95;;
9720;SDS011;4899;42.644;23.366;2023-08-20T14:32:38;3.63;;;3.00;;
9720;SDS011;4899;42.644;23.366;2023-08-20T14:35:03;4.00;;;2.70;;
9720;SDS011;4899;42.644;23.366;2023-08-20T14:37:29;3.38;;;3.17;;
9720;SDS011;4899;42.644;23.366;2023-08-20T14:39:55;3.35;;;2.95;;
9720;SDS011;4899;42.644;23.366;2023-08-20T14:42:20;2.97;;;2.83;;
9720;SDS011;4899;42.644;23.366;2023-08-20T14:44:45;3.20;;;3.00;;
9720;SDS011;4899;42.644;23.366;2023-08-20T14:47:11;5.47;;;2.90;;
9720;SDS011;4899;42.644;23.366;2023-08-20T14:49:36;3.22;;;2.92;;
9720;SDS011;4899;42.644;23.366;2023-08-20T14:52:02;3.33;;;3.13;;
9720;SDS011;4899;42.644;23.366;2023-08-20T14:54:28;3.03;;;2.83;;
9720;SDS011;4899;42.644;23.366;2023-08-20T14:56:53;3.30;;;3.00;;
9720;SDS011;4899;42.644;23.366;2023-08-20T14:59:18;3.33;;;2.70;;
9720;SDS011;4899;42.644;23.366;2023-08-20T15:01:44;3.08;;;2.80;;
9720;SDS011;4899;42.644;23.366;2023-08-20T15:04:09;3.20;;;3.00;;
9720;SDS011;4899;42.644;23.366;2023-08-20T15:06:34;3.08;;;2.88;;
9720;SDS011;4899;42.644;23.366;2023-08-20T15:09:00;3.40;;;3.13;;
9720;SDS011;4899;42.644;23.366;2023-08-20T15:11:28;3.35;;;2.70;;
9720;SDS011;4899;42.644;23.366;2023-08-20T15:13:54;3.00;;;2.80;;
9720;SDS011;4899;42.644;23.366;2023-08-20T15:16:19;3.03;;;2.70;;
9720;SDS011;4899;42.644;23.366;2023-08-20T15:18:45;3.13;;;2.80;;
9720;SDS011;4899;42.644;23.366;2023-08-20T15:21:10;3.47;;;3.17;;
9720;SDS011;4899;42.644;23.366;2023-08-20T15:23:36;3.72;;;2.60;;
9720;SDS011;4899;42.644;23.366;2023-08-20T15:26:01;3.15;;;2.50;;
9720;SDS011;4899;42.644;23.366;2023-08-20T15:28:27;3.03;;;2.83;;